createdAt,value
2023-05-14T00:01:33.098Z,11.60
2023-05-14T00:04:00.517Z,10.93
2023-05-14T00:06:27.584Z,11.30
2023-05-14T00:08:54.708Z,11.13
2023-05-14T00:11:21.797Z,10.40
2023-05-14T00:13:50.127Z,11.10
2023-05-14T00:16:17.296Z,11.90
2023-05-14T00:18:44.457Z,11.60
2023-05-14T00:21:11.665Z,11.33
2023-05-14T00:23:38.900Z,11.63
2023-05-14T00:26:06.070Z,12.43
2023-05-14T00:28:33.162Z,9.90
2023-05-14T00:31:00.470Z,10.80
2023-05-14T00:33:28.012Z,10.93
2023-05-14T00:35:55.123Z,10.20
2023-05-14T00:38:24.102Z,10.40
2023-05-14T00:40:51.384Z,10.30
2023-05-14T00:43:20.899Z,11.50
2023-05-14T00:45:53.939Z,10.03
2023-05-14T00:48:22.746Z,10.60
2023-05-14T00:50:51.106Z,11.20
2023-05-14T00:53:21.744Z,10.33
2023-05-14T00:55:50.682Z,9.93
2023-05-14T00:58:19.418Z,11.20
2023-05-14T01:00:46.586Z,11.20
2023-05-14T01:03:13.935Z,10.13
2023-05-14T01:06:00.895Z,11.13
2023-05-14T01:08:55.853Z,10.27
2023-05-14T01:11:40.340Z,9.93
2023-05-14T01:14:42.973Z,10.47
2023-05-14T01:17:13.474Z,10.03
2023-05-14T01:19:42.733Z,10.83
2023-05-14T01:22:11.006Z,10.77
2023-05-14T01:24:39.043Z,11.57
2023-05-14T01:27:20.141Z,11.00
2023-05-14T01:30:00.991Z,10.77
2023-05-14T01:32:29.519Z,12.50
2023-05-14T01:34:58.621Z,10.80
2023-05-14T01:37:28.089Z,10.40
2023-05-14T01:39:56.706Z,11.83
2023-05-14T01:42:23.934Z,11.63
2023-05-14T01:44:51.171Z,11.67
2023-05-14T01:47:18.429Z,11.63
2023-05-14T01:49:45.594Z,11.10
2023-05-14T01:52:12.641Z,10.50
2023-05-14T01:54:39.710Z,12.70
2023-05-14T01:57:06.827Z,11.50
2023-05-14T01:59:33.902Z,12.20
2023-05-14T02:02:01.124Z,11.10
2023-05-14T02:04:28.230Z,11.70
2023-05-14T02:06:55.375Z,12.60
2023-05-14T02:09:24.928Z,12.20
2023-05-14T02:11:52.113Z,13.17
2023-05-14T02:14:19.176Z,12.37
2023-05-14T02:16:46.531Z,12.90
2023-05-14T02:19:13.691Z,13.47
2023-05-14T02:21:40.775Z,16.70
2023-05-14T02:24:07.978Z,16.20
2023-05-14T02:26:35.549Z,15.77
2023-05-14T02:29:02.573Z,14.00
2023-05-14T02:31:29.735Z,14.80
2023-05-14T02:33:57.203Z,14.10
2023-05-14T02:36:24.208Z,13.60
2023-05-14T02:38:51.451Z,14.10
2023-05-14T02:41:18.583Z,14.90
2023-05-14T02:43:46.220Z,14.10
2023-05-14T02:46:14.299Z,14.50
2023-05-14T02:48:41.351Z,14.63
2023-05-14T02:51:08.456Z,14.30
2023-05-14T02:53:35.566Z,14.10
2023-05-14T02:56:02.878Z,13.57
2023-05-14T02:58:30.073Z,15.13
2023-05-14T03:00:57.210Z,14.83
2023-05-14T03:03:24.959Z,15.17
2023-05-14T03:05:52.803Z,16.13
2023-05-14T03:08:19.821Z,14.70
2023-05-14T03:10:46.914Z,15.47
2023-05-14T03:13:17.770Z,17.13
2023-05-14T03:15:45.177Z,16.00
2023-05-14T03:18:12.622Z,15.13
2023-05-14T03:20:39.944Z,15.53
2023-05-14T03:23:07.105Z,15.10
2023-05-14T03:25:34.543Z,15.30
2023-05-14T03:28:01.609Z,14.20
2023-05-14T03:30:28.925Z,14.67
2023-05-14T03:32:57.221Z,13.07
2023-05-14T03:35:24.310Z,13.33
2023-05-14T03:37:53.081Z,13.90
2023-05-14T03:40:21.516Z,16.23
2023-05-14T03:42:48.854Z,13.00
2023-05-14T03:45:16.630Z,13.53
2023-05-14T03:47:43.794Z,14.67
2023-05-14T03:50:11.813Z,13.87
2023-05-14T03:52:40.472Z,13.43
2023-05-14T03:55:08.976Z,14.30
2023-05-14T03:57:36.901Z,16.10
2023-05-14T04:00:07.685Z,14.97
2023-05-14T04:02:43.864Z,14.83
2023-05-14T04:05:11.447Z,15.50
2023-05-14T04:07:38.689Z,14.33
2023-05-14T04:10:06.860Z,14.30
2023-05-14T04:12:35.954Z,14.87
2023-05-14T04:15:04.198Z,15.30
2023-05-14T04:17:33.902Z,13.17
2023-05-14T04:20:02.053Z,13.83
2023-05-14T04:22:29.091Z,13.50
2023-05-14T04:24:56.096Z,14.93
2023-05-14T04:27:23.289Z,14.60
2023-05-14T04:29:50.958Z,15.40
2023-05-14T04:32:18.389Z,16.43
2023-05-14T04:34:46.938Z,13.80
2023-05-14T04:37:14.282Z,14.03
2023-05-14T04:39:41.548Z,12.97
2023-05-14T04:42:08.676Z,13.43
2023-05-14T04:44:36.347Z,13.33
2023-05-14T04:47:04.325Z,12.47
2023-05-14T04:49:31.567Z,12.40
2023-05-14T04:51:58.664Z,12.30
2023-05-14T04:54:25.775Z,11.40
2023-05-14T04:56:52.884Z,11.10
2023-05-14T04:59:19.884Z,11.97
2023-05-14T05:01:47.032Z,10.97
2023-05-14T05:04:14.182Z,10.40
2023-05-14T05:06:41.306Z,9.23
2023-05-14T05:09:09.524Z,9.20
2023-05-14T05:11:36.606Z,9.20
2023-05-14T05:14:03.702Z,9.30
2023-05-14T05:16:30.962Z,9.47
2023-05-14T05:18:58.206Z,9.40
2023-05-14T05:21:25.662Z,9.03
2023-05-14T05:23:52.707Z,9.37
2023-05-14T05:26:19.822Z,9.23
2023-05-14T05:28:46.918Z,9.50
2023-05-14T05:31:14.082Z,9.13
2023-05-14T05:33:41.472Z,10.07
2023-05-14T05:36:08.873Z,9.83
2023-05-14T05:38:35.991Z,10.43
2023-05-14T05:41:03.126Z,10.10
2023-05-14T05:43:30.144Z,10.17
2023-05-14T05:45:57.169Z,9.33
2023-05-14T05:48:24.444Z,8.77
2023-05-14T05:50:51.872Z,8.93
2023-05-14T05:53:18.955Z,8.30
2023-05-14T05:55:46.025Z,8.50
2023-05-14T05:58:15.779Z,7.80
2023-05-14T06:00:43.102Z,8.00
2023-05-14T06:03:11.903Z,8.47
2023-05-14T06:05:39.116Z,8.07
2023-05-14T06:08:06.594Z,9.07
2023-05-14T06:10:34.491Z,7.73
2023-05-14T06:13:01.816Z,8.37
2023-05-14T06:15:28.876Z,11.73
2023-05-14T06:17:56.043Z,11.90
2023-05-14T06:20:23.426Z,10.13
2023-05-14T06:22:50.698Z,8.40
2023-05-14T06:25:18.134Z,8.93
2023-05-14T06:27:45.376Z,8.57
2023-05-14T06:30:13.246Z,8.50
2023-05-14T06:32:40.427Z,7.80
2023-05-14T06:35:08.425Z,8.27
2023-05-14T06:37:35.533Z,7.53
2023-05-14T06:40:03.765Z,9.47
2023-05-14T06:42:30.831Z,7.43
2023-05-14T06:44:58.672Z,7.50
2023-05-14T06:47:25.824Z,7.10
2023-05-14T06:49:53.020Z,7.90
2023-05-14T06:52:20.115Z,7.33
2023-05-14T06:54:47.162Z,6.63
2023-05-14T06:57:14.172Z,7.83
2023-05-14T06:59:41.468Z,7.50
2023-05-14T07:02:08.564Z,7.20
2023-05-14T07:04:36.545Z,7.77
2023-05-14T07:07:03.983Z,6.90
2023-05-14T07:09:31.007Z,6.47
2023-05-14T07:11:58.183Z,6.70
2023-05-14T07:14:25.381Z,5.53
2023-05-14T07:16:52.540Z,5.53
2023-05-14T07:19:19.663Z,6.00
2023-05-14T07:21:46.855Z,5.97
2023-05-14T07:24:14.031Z,6.80
2023-05-14T07:26:41.474Z,6.10
2023-05-14T07:29:08.813Z,5.60
2023-05-14T07:31:36.317Z,5.40
2023-05-14T07:34:03.452Z,5.80
2023-05-14T07:36:30.942Z,6.30
2023-05-14T07:38:58.109Z,4.87
2023-05-14T07:41:25.145Z,5.37
2023-05-14T07:43:52.226Z,5.27
2023-05-14T07:46:19.361Z,5.77
2023-05-14T07:48:46.510Z,5.57
2023-05-14T07:51:13.651Z,5.10
2023-05-14T07:53:41.228Z,5.87
2023-05-14T07:56:08.895Z,5.27
2023-05-14T07:58:36.219Z,5.17
2023-05-14T08:01:07.112Z,5.30
2023-05-14T08:03:34.545Z,5.47
2023-05-14T08:06:01.704Z,5.40
2023-05-14T08:08:28.824Z,5.93
2023-05-14T08:10:55.958Z,4.50
2023-05-14T08:13:23.084Z,6.10
2023-05-14T08:15:50.617Z,5.80
2023-05-14T08:18:17.667Z,7.53
2023-05-14T08:20:44.772Z,5.93
2023-05-14T08:23:11.992Z,4.73
2023-05-14T08:25:39.223Z,4.17
2023-05-14T08:28:06.962Z,5.00
2023-05-14T08:30:34.407Z,5.47
2023-05-14T08:33:01.532Z,4.90
2023-05-14T08:35:28.714Z,5.73
2023-05-14T08:37:57.142Z,4.27
2023-05-14T08:40:24.450Z,4.80
2023-05-14T08:42:52.498Z,5.00
2023-05-14T08:45:34.032Z,4.67
2023-05-14T08:48:05.188Z,4.50
2023-05-14T08:50:32.855Z,5.47
2023-05-14T08:53:00.009Z,5.17
2023-05-14T08:55:28.348Z,3.87
2023-05-14T08:57:56.168Z,5.83
2023-05-14T09:00:23.712Z,4.37
2023-05-14T09:02:51.752Z,4.53
2023-05-14T09:05:20.133Z,4.87
2023-05-14T09:07:47.450Z,3.97
2023-05-14T09:10:16.442Z,4.47
2023-05-14T09:12:43.620Z,4.00
2023-05-14T09:15:11.095Z,4.67
2023-05-14T09:17:38.253Z,4.03
2023-05-14T09:20:06.970Z,3.43
2023-05-14T09:22:35.706Z,4.03
2023-05-14T09:25:12.277Z,4.27
2023-05-14T09:27:39.730Z,4.33
2023-05-14T09:30:12.299Z,4.00
2023-05-14T09:32:46.222Z,3.90
2023-05-14T09:35:19.722Z,4.13
2023-05-14T09:37:50.457Z,3.77
2023-05-14T09:40:21.404Z,3.57
2023-05-14T09:42:49.559Z,2.93
2023-05-14T09:45:17.554Z,3.57
2023-05-14T09:47:45.450Z,3.60
2023-05-14T09:50:13.385Z,2.80
2023-05-14T09:52:40.530Z,3.27
2023-05-14T09:55:08.358Z,3.50
2023-05-14T09:57:35.923Z,3.77
2023-05-14T10:00:03.986Z,4.17
2023-05-14T10:02:37.951Z,3.40
2023-05-14T10:05:07.226Z,3.13
2023-05-14T10:07:41.747Z,3.33
2023-05-14T10:10:16.991Z,3.70
2023-05-14T10:12:58.661Z,4.37
2023-05-14T10:15:38.244Z,3.30
2023-05-14T10:18:13.668Z,3.63
2023-05-14T10:20:41.637Z,3.23
2023-05-14T10:23:09.081Z,4.20
2023-05-14T10:25:37.651Z,3.70
2023-05-14T10:28:06.254Z,3.37
2023-05-14T10:30:33.433Z,3.80
2023-05-14T10:33:16.548Z,3.00
2023-05-14T10:36:02.405Z,3.13
2023-05-14T10:38:32.860Z,3.13
2023-05-14T10:41:03.978Z,3.47
2023-05-14T10:43:36.934Z,3.73
2023-05-14T10:46:04.541Z,4.40
2023-05-14T10:48:33.758Z,3.70
2023-05-14T10:51:02.901Z,3.73
2023-05-14T10:53:38.617Z,4.53
2023-05-14T10:56:14.318Z,4.40
2023-05-14T10:58:45.956Z,4.23
2023-05-14T11:01:14.992Z,4.43
2023-05-14T11:03:45.691Z,4.23
2023-05-14T11:06:15.930Z,4.10
2023-05-14T11:08:44.697Z,3.73
2023-05-14T11:11:13.401Z,3.33
2023-05-14T11:13:43.016Z,3.60
2023-05-14T11:18:42.013Z,4.20
2023-05-14T11:21:09.529Z,3.80
2023-05-14T11:23:36.794Z,3.70
2023-05-14T11:26:04.387Z,4.07
2023-05-14T11:28:31.525Z,3.43
2023-05-14T11:30:59.224Z,3.10
2023-05-14T11:33:28.239Z,3.40
2023-05-14T11:35:58.533Z,3.47
2023-05-14T11:38:25.771Z,3.63
2023-05-14T11:40:58.552Z,3.80
2023-05-14T11:43:29.230Z,3.80
2023-05-14T11:45:57.021Z,3.93
2023-05-14T11:48:24.594Z,3.93
2023-05-14T11:50:53.179Z,3.50
2023-05-14T11:53:31.243Z,2.77
2023-05-14T11:55:58.479Z,3.53
2023-05-14T11:58:26.197Z,3.37
2023-05-14T12:00:55.746Z,3.13
2023-05-14T12:03:26.259Z,6.50
2023-05-14T12:05:59.643Z,3.20
2023-05-14T12:08:29.264Z,2.90
2023-05-14T12:10:58.814Z,3.27
2023-05-14T12:13:28.431Z,3.50
2023-05-14T12:15:59.387Z,2.50
2023-05-14T12:18:29.388Z,3.53
2023-05-14T12:21:02.512Z,2.80
2023-05-14T12:23:31.788Z,2.50
2023-05-14T12:26:08.290Z,2.87
2023-05-14T12:28:38.850Z,2.57
2023-05-14T12:31:06.507Z,2.90
2023-05-14T12:33:33.905Z,2.43
2023-05-14T12:36:17.555Z,2.23
2023-05-14T12:38:49.083Z,2.67
2023-05-14T12:41:17.374Z,2.47
2023-05-14T12:43:44.849Z,2.07
2023-05-14T12:46:11.929Z,1.93
2023-05-14T12:48:39.046Z,2.03
2023-05-14T12:51:06.648Z,2.17
2023-05-14T12:53:35.312Z,1.80
2023-05-14T12:56:02.578Z,1.80
2023-05-14T12:58:30.028Z,2.40
2023-05-14T13:00:57.151Z,2.53
2023-05-14T13:03:24.420Z,1.53
2023-05-14T13:05:52.817Z,2.10
2023-05-14T13:08:21.681Z,1.80
2023-05-14T13:10:48.702Z,2.00
2023-05-14T13:13:16.286Z,4.20
2023-05-14T13:15:43.453Z,1.80
2023-05-14T13:18:10.546Z,1.97
2023-05-14T13:20:37.654Z,1.73
2023-05-14T13:23:04.790Z,2.03
2023-05-14T13:25:31.845Z,2.63
2023-05-14T13:27:59.110Z,3.40
2023-05-14T13:30:26.188Z,2.93
2023-05-14T13:32:53.415Z,3.23
2023-05-14T13:35:20.660Z,2.83
2023-05-14T13:37:47.760Z,2.40
2023-05-14T13:40:14.816Z,3.03
2023-05-14T13:42:41.900Z,3.47
2023-05-14T13:45:09.712Z,2.80
2023-05-14T13:47:36.857Z,3.63
2023-05-14T13:50:04.308Z,4.80
2023-05-14T13:52:31.637Z,3.07
2023-05-14T13:54:58.795Z,6.30
2023-05-14T13:57:26.495Z,2.30
2023-05-14T13:59:53.576Z,2.30
2023-05-14T14:02:20.898Z,3.00
2023-05-14T14:04:49.408Z,3.33
2023-05-14T14:07:16.615Z,2.83
2023-05-14T14:09:45.161Z,3.57
2023-05-14T14:12:12.258Z,2.80
2023-05-14T14:14:42.245Z,2.73
2023-05-14T14:17:09.539Z,2.50
2023-05-14T14:19:36.849Z,2.73
2023-05-14T14:22:04.380Z,2.53
2023-05-14T14:24:31.745Z,4.23
2023-05-14T14:26:58.845Z,2.80
2023-05-14T14:29:25.860Z,2.57
2023-05-14T14:31:53.037Z,2.60
2023-05-14T14:34:21.000Z,3.40
2023-05-14T14:36:48.030Z,2.87
2023-05-14T14:39:15.111Z,2.77
2023-05-14T14:41:42.225Z,2.20
2023-05-14T14:44:09.338Z,3.30
2023-05-14T14:46:36.469Z,2.40
2023-05-14T14:49:03.577Z,3.50
2023-05-14T14:51:31.404Z,2.43
2023-05-14T14:53:58.622Z,2.50
2023-05-14T14:56:27.296Z,2.60
2023-05-14T14:58:54.360Z,2.30
2023-05-14T15:01:22.868Z,4.30
2023-05-14T15:03:50.117Z,3.50
2023-05-14T15:06:17.301Z,3.50
2023-05-14T15:08:44.357Z,3.40
2023-05-14T15:11:11.626Z,3.50
2023-05-14T15:13:40.123Z,2.90
2023-05-14T15:16:07.737Z,2.90
2023-05-14T15:18:35.042Z,2.73
2023-05-14T15:21:02.310Z,2.80
2023-05-14T15:23:29.398Z,3.60
2023-05-14T15:25:56.499Z,3.30
2023-05-14T15:28:23.737Z,4.87
2023-05-14T15:30:50.765Z,5.97
2023-05-14T15:33:19.424Z,3.33
2023-05-14T15:35:46.946Z,2.70
2023-05-14T15:38:14.134Z,3.87
2023-05-14T15:40:41.646Z,3.13
2023-05-14T15:43:08.879Z,3.57
2023-05-14T15:45:36.552Z,3.50
2023-05-14T15:48:03.936Z,3.20
2023-05-14T15:50:31.125Z,3.00
2023-05-14T15:52:58.231Z,3.47
2023-05-14T15:55:25.423Z,3.20
2023-05-14T15:57:52.458Z,2.83
2023-05-14T16:00:20.328Z,3.10
2023-05-14T16:02:47.565Z,3.77
2023-05-14T16:05:15.368Z,2.93
2023-05-14T16:07:43.417Z,4.00
2023-05-14T16:10:10.972Z,3.17
2023-05-14T16:12:38.068Z,2.97
2023-05-14T16:15:07.890Z,3.40
2023-05-14T16:17:35.055Z,2.97
2023-05-14T16:20:02.403Z,3.33
2023-05-14T16:22:31.920Z,3.33
2023-05-14T16:25:00.671Z,3.23
2023-05-14T16:27:29.752Z,2.40
2023-05-14T16:29:56.779Z,2.60
2023-05-14T16:32:25.309Z,2.30
2023-05-14T16:34:52.597Z,1.50
2023-05-14T16:37:22.817Z,2.23
2023-05-14T16:39:49.964Z,1.87
2023-05-14T16:42:17.089Z,1.80
2023-05-14T16:44:44.332Z,2.63
2023-05-14T16:47:11.660Z,2.80
2023-05-14T16:49:38.731Z,2.77
2023-05-14T16:52:06.681Z,3.47
2023-05-14T16:54:33.689Z,3.03
2023-05-14T16:57:00.769Z,3.17
2023-05-14T16:59:27.934Z,3.37
2023-05-14T17:01:55.097Z,3.20
2023-05-14T17:04:24.963Z,2.70
2023-05-14T17:06:52.203Z,3.90
2023-05-14T17:09:19.569Z,3.13
2023-05-14T17:11:46.733Z,3.60
2023-05-14T17:14:13.783Z,2.80
2023-05-14T17:16:42.383Z,3.67
2023-05-14T17:19:09.569Z,2.93
2023-05-14T17:21:36.696Z,3.43
2023-05-14T17:24:03.896Z,3.37
2023-05-14T17:26:30.990Z,2.97
2023-05-14T17:28:58.090Z,2.70
2023-05-14T17:31:25.252Z,2.80
2023-05-14T17:33:52.347Z,2.63
2023-05-14T17:36:19.472Z,2.73
2023-05-14T17:38:47.170Z,2.83
2023-05-14T17:41:14.179Z,2.00
2023-05-14T17:43:41.236Z,2.57
2023-05-14T17:46:08.350Z,1.63
2023-05-14T17:48:35.425Z,3.10
2023-05-14T17:51:02.489Z,2.17
2023-05-14T17:53:29.683Z,2.00
2023-05-14T17:55:56.826Z,4.80
2023-05-14T17:58:25.124Z,6.20
2023-05-14T18:00:52.186Z,4.67
2023-05-14T18:03:20.407Z,5.10
2023-05-14T18:05:47.661Z,4.37
2023-05-14T18:08:14.924Z,4.47
2023-05-14T18:10:41.990Z,6.47
2023-05-14T18:13:09.054Z,4.13
2023-05-14T18:15:37.035Z,6.03
2023-05-14T18:18:04.697Z,4.10
2023-05-14T18:20:33.511Z,4.07
2023-05-14T18:23:02.982Z,4.03
2023-05-14T18:25:30.142Z,5.00
2023-05-14T18:27:57.264Z,5.33
2023-05-14T18:30:24.303Z,4.70
2023-05-14T18:32:51.559Z,5.70
2023-05-14T18:35:18.786Z,8.10
2023-05-14T18:37:46.062Z,4.60
2023-05-14T18:40:16.875Z,3.80
2023-05-14T18:42:45.621Z,3.80
2023-05-14T18:45:12.723Z,3.80
2023-05-14T18:47:40.089Z,4.40
2023-05-14T18:50:08.500Z,4.20
2023-05-14T18:52:35.771Z,4.30
2023-05-14T18:55:03.109Z,6.27
2023-05-14T18:57:32.204Z,4.03
2023-05-14T19:00:02.102Z,4.30
2023-05-14T19:02:29.277Z,3.33
2023-05-14T19:04:56.476Z,4.17
2023-05-14T19:07:23.648Z,3.37
2023-05-14T19:09:51.037Z,2.90
2023-05-14T19:12:18.207Z,2.97
2023-05-14T19:14:45.401Z,3.67
2023-05-14T19:17:12.506Z,3.37
2023-05-14T19:19:39.642Z,3.37
2023-05-14T19:22:06.980Z,2.60
2023-05-14T19:24:34.185Z,3.83
2023-05-14T19:27:01.463Z,3.13
2023-05-14T19:29:28.690Z,4.00
2023-05-14T19:31:56.094Z,2.90
2023-05-14T19:34:23.562Z,3.10
2023-05-14T19:36:51.004Z,3.53
2023-05-14T19:39:18.223Z,3.70
2023-05-14T19:41:45.464Z,3.17
2023-05-14T19:44:12.549Z,3.60
2023-05-14T19:46:40.656Z,3.73
2023-05-14T19:49:07.807Z,3.37
2023-05-14T19:51:34.876Z,3.90
2023-05-14T19:54:02.055Z,3.37
2023-05-14T19:56:29.242Z,3.90
2023-05-14T19:58:56.371Z,3.03
2023-05-14T20:01:23.536Z,3.83
2023-05-14T20:03:50.633Z,3.27
2023-05-14T20:06:18.544Z,2.87
2023-05-14T20:08:45.752Z,3.67
2023-05-14T20:11:13.064Z,3.90
2023-05-14T20:13:40.165Z,2.97
2023-05-14T20:16:07.464Z,4.00
2023-05-14T20:18:34.675Z,3.30
2023-05-14T20:21:01.878Z,3.90
2023-05-14T20:23:28.930Z,3.20
2023-05-14T20:25:56.028Z,3.30
2023-05-14T20:28:23.151Z,3.20
2023-05-14T20:30:50.270Z,3.67
2023-05-14T20:33:17.438Z,3.70
2023-05-14T20:35:44.816Z,3.67
2023-05-14T20:38:13.466Z,3.57
2023-05-14T20:40:40.708Z,3.80
2023-05-14T20:43:07.752Z,3.33
2023-05-14T20:45:34.793Z,3.73
2023-05-14T20:48:02.001Z,4.10
2023-05-14T20:50:29.157Z,3.47
2023-05-14T20:52:56.266Z,3.03
2023-05-14T20:55:23.828Z,2.80
2023-05-14T20:57:51.148Z,3.00
2023-05-14T21:00:19.106Z,4.00
2023-05-14T21:02:46.609Z,3.37
2023-05-14T21:05:14.088Z,4.07
2023-05-14T21:07:41.290Z,3.60
2023-05-14T21:10:11.693Z,3.20
2023-05-14T21:12:43.490Z,3.57
2023-05-14T21:15:12.837Z,3.53
2023-05-14T21:17:43.029Z,3.77
2023-05-14T21:20:16.590Z,3.40
2023-05-14T21:22:44.046Z,3.20
2023-05-14T21:25:11.375Z,3.37
2023-05-14T21:27:38.808Z,3.40
2023-05-14T21:30:07.074Z,3.83
2023-05-14T21:32:34.325Z,3.20
2023-05-14T21:35:01.904Z,3.30
2023-05-14T21:37:29.060Z,3.93
2023-05-14T21:39:56.556Z,3.60
2023-05-14T21:42:23.797Z,3.57
2023-05-14T21:44:51.001Z,4.57
2023-05-14T21:47:43.502Z,4.30
2023-05-14T21:50:11.179Z,4.20
2023-05-14T21:52:39.199Z,5.53
2023-05-14T21:55:06.605Z,4.07
2023-05-14T21:57:37.585Z,4.13
2023-05-14T22:00:10.552Z,3.57
2023-05-14T22:02:40.983Z,4.10
2023-05-14T22:05:08.463Z,4.00
2023-05-14T22:07:36.150Z,3.57
2023-05-14T22:10:03.975Z,4.43
2023-05-14T22:12:34.095Z,3.53
2023-05-14T22:15:01.763Z,4.47
2023-05-14T22:17:29.156Z,3.50
2023-05-14T22:19:56.589Z,3.97
2023-05-14T22:22:24.019Z,3.87
2023-05-14T22:24:51.208Z,4.17
2023-05-14T22:27:18.667Z,4.77
2023-05-14T22:29:45.937Z,4.63
2023-05-14T22:32:13.055Z,4.30
2023-05-14T22:34:40.108Z,3.83
2023-05-14T22:37:07.291Z,4.10
2023-05-14T22:39:34.639Z,4.60
2023-05-14T22:42:01.734Z,5.33
2023-05-14T22:44:29.962Z,5.27
2023-05-14T22:46:57.488Z,4.80
2023-05-14T22:49:24.706Z,4.77
2023-05-14T22:51:54.396Z,4.50
2023-05-14T22:54:21.830Z,5.03
2023-05-14T22:56:49.069Z,4.50
2023-05-14T22:59:16.155Z,5.13
2023-05-14T23:01:43.568Z,5.80
2023-05-14T23:04:10.820Z,4.83
2023-05-14T23:06:37.870Z,4.17
2023-05-14T23:09:04.976Z,4.77
2023-05-14T23:11:31.993Z,5.10
2023-05-14T23:13:59.046Z,5.57
2023-05-14T23:16:26.274Z,5.20
2023-05-14T23:18:53.488Z,5.00
2023-05-14T23:21:20.707Z,4.70
2023-05-14T23:23:48.589Z,4.50
2023-05-14T23:26:15.694Z,4.17
2023-05-14T23:28:42.801Z,4.60
2023-05-14T23:31:09.891Z,4.33
2023-05-14T23:33:37.076Z,4.23
2023-05-14T23:36:04.344Z,5.13
2023-05-14T23:38:31.904Z,4.50
2023-05-14T23:40:58.924Z,5.03
2023-05-14T23:43:26.119Z,4.33
2023-05-14T23:45:53.360Z,4.30
2023-05-14T23:48:20.696Z,4.67
2023-05-14T23:50:47.783Z,9.47
2023-05-14T23:53:14.824Z,6.90
2023-05-14T23:55:41.911Z,5.30
2023-05-14T23:58:09.078Z,5.20
